sensor_id;sensor_type;location;lat;lon;timestamp;P1;durP1;ratioP1;P2;durP2;ratioP2
75698;SDS011;64313;51.018;13.742;2023-09-19T00:01:22;5.25;;;1.40;;
75698;SDS011;64313;51.018;13.742;2023-09-19T00:03:48;5.22;;;1.65;;
75698;SDS011;64313;51.018;13.742;2023-09-19T00:06:13;3.92;;;1.77;;
75698;SDS011;64313;51.018;13.742;2023-09-19T00:08:41;4.93;;;1.27;;
75698;SDS011;64313;51.018;13.742;2023-09-19T00:11:09;5.30;;;1.50;;
75698;SDS011;64313;51.018;13.742;2023-09-19T00:13:35;5.55;;;1.70;;
75698;SDS011;64313;51.018;13.742;2023-09-19T00:16:01;4.47;;;1.60;;
75698;SDS011;64313;51.018;13.742;2023-09-19T00:18:33;7.50;;;1.77;;
75698;SDS011;64313;51.018;13.742;2023-09-19T00:21:00;5.43;;;1.60;;
75698;SDS011;64313;51.018;13.742;2023-09-19T00:23:25;7.22;;;1.67;;
75698;SDS011;64313;51.018;13.742;2023-09-19T00:25:52;4.45;;;1.73;;
75698;SDS011;64313;51.018;13.742;2023-09-19T00:28:17;8.35;;;2.10;;
75698;SDS011;64313;51.018;13.742;2023-09-19T00:30:45;5.97;;;1.98;;
75698;SDS011;64313;51.018;13.742;2023-09-19T00:33:15;6.43;;;1.95;;
75698;SDS011;64313;51.018;13.742;2023-09-19T00:35:53;5.45;;;1.95;;
75698;SDS011;64313;51.018;13.742;2023-09-19T00:38:19;7.80;;;2.25;;
75698;SDS011;64313;51.018;13.742;2023-09-19T00:40:47;4.93;;;1.75;;
75698;SDS011;64313;51.018;13.742;2023-09-19T00:43:14;5.20;;;1.80;;
75698;SDS011;64313;51.018;13.742;2023-09-19T00:45:42;4.32;;;1.90;;
75698;SDS011;64313;51.018;13.742;2023-09-19T00:48:13;5.20;;;1.88;;
75698;SDS011;64313;51.018;13.742;2023-09-19T00:50:41;8.98;;;2.80;;
75698;SDS011;64313;51.018;13.742;2023-09-19T00:53:08;7.53;;;2.75;;
75698;SDS011;64313;51.018;13.742;2023-09-19T00:55:35;6.75;;;2.38;;
75698;SDS011;64313;51.018;13.742;2023-09-19T00:58:02;5.55;;;2.45;;
75698;SDS011;64313;51.018;13.742;2023-09-19T01:00:28;7.03;;;2.72;;
75698;SDS011;64313;51.018;13.742;2023-09-19T01:02:54;5.65;;;2.67;;
75698;SDS011;64313;51.018;13.742;2023-09-19T01:05:19;6.35;;;3.03;;
75698;SDS011;64313;51.018;13.742;2023-09-19T01:07:45;6.28;;;2.83;;
75698;SDS011;64313;51.018;13.742;2023-09-19T01:10:15;7.90;;;3.03;;
75698;SDS011;64313;51.018;13.742;2023-09-19T01:29:29;8.07;;;4.25;;
75698;SDS011;64313;51.018;13.742;2023-09-19T01:32:09;10.48;;;4.35;;
75698;SDS011;64313;51.018;13.742;2023-09-19T01:34:51;8.50;;;4.40;;
75698;SDS011;64313;51.018;13.742;2023-09-19T01:37:29;9.32;;;4.32;;
75698;SDS011;64313;51.018;13.742;2023-09-19T01:40:00;7.38;;;4.20;;
75698;SDS011;64313;51.018;13.742;2023-09-19T01:42:35;7.40;;;4.45;;
75698;SDS011;64313;51.018;13.742;2023-09-19T01:47:49;9.20;;;4.53;;
75698;SDS011;64313;51.018;13.742;2023-09-19T01:50:17;9.68;;;4.97;;
75698;SDS011;64313;51.018;13.742;2023-09-19T01:52:57;10.35;;;4.85;;
75698;SDS011;64313;51.018;13.742;2023-09-19T01:55:30;8.95;;;4.72;;
75698;SDS011;64313;51.018;13.742;2023-09-19T01:58:11;8.70;;;4.97;;
75698;SDS011;64313;51.018;13.742;2023-09-19T02:00:42;9.02;;;4.93;;
75698;SDS011;64313;51.018;13.742;2023-09-19T02:03:10;8.77;;;4.68;;
75698;SDS011;64313;51.018;13.742;2023-09-19T02:05:40;11.35;;;5.20;;
75698;SDS011;64313;51.018;13.742;2023-09-19T02:08:05;10.18;;;4.97;;
75698;SDS011;64313;51.018;13.742;2023-09-19T02:10:31;8.20;;;5.00;;
75698;SDS011;64313;51.018;13.742;2023-09-19T02:12:57;9.63;;;5.55;;
75698;SDS011;64313;51.018;13.742;2023-09-19T02:15:24;9.88;;;5.15;;
75698;SDS011;64313;51.018;13.742;2023-09-19T02:17:49;9.48;;;4.35;;
75698;SDS011;64313;51.018;13.742;2023-09-19T02:20:15;10.35;;;4.72;;
75698;SDS011;64313;51.018;13.742;2023-09-19T02:22:42;9.18;;;4.93;;
75698;SDS011;64313;51.018;13.742;2023-09-19T02:25:09;7.45;;;4.95;;
75698;SDS011;64313;51.018;13.742;2023-09-19T02:27:35;9.38;;;4.95;;
75698;SDS011;64313;51.018;13.742;2023-09-19T02:30:01;9.23;;;4.40;;
75698;SDS011;64313;51.018;13.742;2023-09-19T02:32:29;6.07;;;2.72;;
75698;SDS011;64313;51.018;13.742;2023-09-19T02:34:56;5.88;;;2.33;;
75698;SDS011;64313;51.018;13.742;2023-09-19T02:37:23;7.07;;;2.75;;
75698;SDS011;64313;51.018;13.742;2023-09-19T02:39:48;8.82;;;3.13;;
75698;SDS011;64313;51.018;13.742;2023-09-19T02:42:14;8.90;;;4.20;;
75698;SDS011;64313;51.018;13.742;2023-09-19T02:44:39;6.75;;;3.53;;
75698;SDS011;64313;51.018;13.742;2023-09-19T02:47:05;7.03;;;3.45;;
75698;SDS011;64313;51.018;13.742;2023-09-19T02:49:33;5.63;;;2.50;;
75698;SDS011;64313;51.018;13.742;2023-09-19T02:51:58;3.97;;;1.23;;
75698;SDS011;64313;51.018;13.742;2023-09-19T02:54:24;2.15;;;0.90;;
75698;SDS011;64313;51.018;13.742;2023-09-19T02:56:49;3.33;;;1.00;;
75698;SDS011;64313;51.018;13.742;2023-09-19T02:59:15;5.18;;;0.93;;
75698;SDS011;64313;51.018;13.742;2023-09-19T03:01:43;3.00;;;0.80;;
75698;SDS011;64313;51.018;13.742;2023-09-19T03:04:09;4.60;;;0.85;;
75698;SDS011;64313;51.018;13.742;2023-09-19T03:06:36;3.10;;;0.82;;
75698;SDS011;64313;51.018;13.742;2023-09-19T03:09:04;3.35;;;0.80;;
75698;SDS011;64313;51.018;13.742;2023-09-19T03:11:38;3.17;;;1.00;;
75698;SDS011;64313;51.018;13.742;2023-09-19T03:14:05;2.78;;;0.80;;
75698;SDS011;64313;51.018;13.742;2023-09-19T03:16:31;3.67;;;0.80;;
75698;SDS011;64313;51.018;13.742;2023-09-19T03:18:59;2.10;;;0.77;;
75698;SDS011;64313;51.018;13.742;2023-09-19T03:21:25;2.58;;;0.68;;
75698;SDS011;64313;51.018;13.742;2023-09-19T03:23:51;2.17;;;0.80;;
75698;SDS011;64313;51.018;13.742;2023-09-19T03:26:17;2.65;;;0.80;;
75698;SDS011;64313;51.018;13.742;2023-09-19T03:28:43;2.00;;;0.80;;
75698;SDS011;64313;51.018;13.742;2023-09-19T03:31:11;2.55;;;0.77;;
75698;SDS011;64313;51.018;13.742;2023-09-19T03:33:37;2.17;;;0.80;;
75698;SDS011;64313;51.018;13.742;2023-09-19T03:36:05;4.88;;;0.80;;
75698;SDS011;64313;51.018;13.742;2023-09-19T03:38:31;3.38;;;1.00;;
75698;SDS011;64313;51.018;13.742;2023-09-19T03:40:57;2.85;;;0.90;;
75698;SDS011;64313;51.018;13.742;2023-09-19T03:43:23;1.92;;;0.70;;
75698;SDS011;64313;51.018;13.742;2023-09-19T03:45:49;3.28;;;0.98;;
75698;SDS011;64313;51.018;13.742;2023-09-19T03:48:17;3.78;;;1.00;;
75698;SDS011;64313;51.018;13.742;2023-09-19T03:50:43;3.05;;;0.90;;
75698;SDS011;64313;51.018;13.742;2023-09-19T03:53:11;3.03;;;0.90;;
75698;SDS011;64313;51.018;13.742;2023-09-19T03:55:40;3.88;;;0.88;;
75698;SDS011;64313;51.018;13.742;2023-09-19T03:58:05;3.40;;;0.95;;
75698;SDS011;64313;51.018;13.742;2023-09-19T04:00:31;4.78;;;1.05;;
75698;SDS011;64313;51.018;13.742;2023-09-19T04:02:58;3.40;;;0.90;;
75698;SDS011;64313;51.018;13.742;2023-09-19T04:05:23;4.97;;;1.02;;
75698;SDS011;64313;51.018;13.742;2023-09-19T04:07:49;3.58;;;1.00;;
75698;SDS011;64313;51.018;13.742;2023-09-19T04:10:19;2.88;;;0.90;;
75698;SDS011;64313;51.018;13.742;2023-09-19T04:12:52;4.93;;;1.10;;
75698;SDS011;64313;51.018;13.742;2023-09-19T04:15:18;4.05;;;1.00;;
75698;SDS011;64313;51.018;13.742;2023-09-19T04:17:44;3.95;;;0.80;;
75698;SDS011;64313;51.018;13.742;2023-09-19T04:20:09;2.42;;;0.70;;
75698;SDS011;64313;51.018;13.742;2023-09-19T04:22:38;2.97;;;1.00;;
75698;SDS011;64313;51.018;13.742;2023-09-19T04:25:04;3.92;;;1.05;;
75698;SDS011;64313;51.018;13.742;2023-09-19T04:27:32;4.50;;;0.90;;
75698;SDS011;64313;51.018;13.742;2023-09-19T04:29:57;3.88;;;0.90;;
75698;SDS011;64313;51.018;13.742;2023-09-19T04:32:24;2.83;;;0.95;;
75698;SDS011;64313;51.018;13.742;2023-09-19T04:34:53;6.82;;;1.10;;
75698;SDS011;64313;51.018;13.742;2023-09-19T04:37:19;3.67;;;1.08;;
75698;SDS011;64313;51.018;13.742;2023-09-19T04:39:44;3.08;;;0.95;;
75698;SDS011;64313;51.018;13.742;2023-09-19T04:42:12;3.28;;;0.90;;
75698;SDS011;64313;51.018;13.742;2023-09-19T04:44:39;3.47;;;1.33;;
75698;SDS011;64313;51.018;13.742;2023-09-19T04:47:05;3.13;;;1.08;;
75698;SDS011;64313;51.018;13.742;2023-09-19T04:49:31;4.88;;;1.08;;
75698;SDS011;64313;51.018;13.742;2023-09-19T04:51:56;3.15;;;0.90;;
75698;SDS011;64313;51.018;13.742;2023-09-19T04:54:21;2.92;;;0.90;;
75698;SDS011;64313;51.018;13.742;2023-09-19T04:56:47;4.50;;;0.90;;
75698;SDS011;64313;51.018;13.742;2023-09-19T04:59:13;4.20;;;1.00;;
75698;SDS011;64313;51.018;13.742;2023-09-19T05:01:40;3.22;;;0.98;;
75698;SDS011;64313;51.018;13.742;2023-09-19T05:04:05;3.90;;;1.00;;
75698;SDS011;64313;51.018;13.742;2023-09-19T05:06:32;2.95;;;0.90;;
75698;SDS011;64313;51.018;13.742;2023-09-19T05:08:58;3.78;;;1.10;;
75698;SDS011;64313;51.018;13.742;2023-09-19T05:11:25;3.30;;;0.93;;
75698;SDS011;64313;51.018;13.742;2023-09-19T05:13:51;2.35;;;0.98;;
75698;SDS011;64313;51.018;13.742;2023-09-19T05:16:18;3.20;;;0.85;;
75698;SDS011;64313;51.018;13.742;2023-09-19T05:18:43;4.32;;;0.93;;
75698;SDS011;64313;51.018;13.742;2023-09-19T05:21:09;4.40;;;1.00;;
75698;SDS011;64313;51.018;13.742;2023-09-19T05:23:34;3.15;;;1.10;;
75698;SDS011;64313;51.018;13.742;2023-09-19T05:25:59;3.03;;;0.95;;
75698;SDS011;64313;51.018;13.742;2023-09-19T05:28:25;2.75;;;0.95;;
75698;SDS011;64313;51.018;13.742;2023-09-19T05:30:52;3.40;;;1.00;;
75698;SDS011;64313;51.018;13.742;2023-09-19T05:33:18;2.72;;;0.93;;
75698;SDS011;64313;51.018;13.742;2023-09-19T05:35:44;3.88;;;1.02;;
75698;SDS011;64313;51.018;13.742;2023-09-19T05:38:13;5.20;;;1.05;;
75698;SDS011;64313;51.018;13.742;2023-09-19T05:40:39;3.42;;;1.10;;
75698;SDS011;64313;51.018;13.742;2023-09-19T05:43:07;3.67;;;0.93;;
75698;SDS011;64313;51.018;13.742;2023-09-19T05:45:33;3.17;;;1.13;;
75698;SDS011;64313;51.018;13.742;2023-09-19T05:48:07;3.00;;;1.00;;
75698;SDS011;64313;51.018;13.742;2023-09-19T05:50:33;4.40;;;1.27;;
75698;SDS011;64313;51.018;13.742;2023-09-19T05:52:59;4.40;;;1.10;;
75698;SDS011;64313;51.018;13.742;2023-09-19T05:55:24;3.88;;;0.88;;
75698;SDS011;64313;51.018;13.742;2023-09-19T05:57:50;4.35;;;0.90;;
75698;SDS011;64313;51.018;13.742;2023-09-19T06:00:19;3.35;;;1.08;;
75698;SDS011;64313;51.018;13.742;2023-09-19T06:02:57;2.88;;;0.90;;
75698;SDS011;64313;51.018;13.742;2023-09-19T06:05:24;4.45;;;1.00;;
75698;SDS011;64313;51.018;13.742;2023-09-19T06:07:52;3.63;;;1.00;;
75698;SDS011;64313;51.018;13.742;2023-09-19T06:10:17;4.18;;;1.00;;
75698;SDS011;64313;51.018;13.742;2023-09-19T06:12:43;3.55;;;1.08;;
75698;SDS011;64313;51.018;13.742;2023-09-19T06:15:14;2.95;;;0.95;;
75698;SDS011;64313;51.018;13.742;2023-09-19T06:17:42;3.45;;;1.05;;
75698;SDS011;64313;51.018;13.742;2023-09-19T06:20:08;7.10;;;1.13;;
75698;SDS011;64313;51.018;13.742;2023-09-19T06:25:11;2.95;;;0.98;;
75698;SDS011;64313;51.018;13.742;2023-09-19T06:27:40;3.58;;;1.00;;
75698;SDS011;64313;51.018;13.742;2023-09-19T06:30:09;3.30;;;0.95;;
75698;SDS011;64313;51.018;13.742;2023-09-19T06:32:36;2.85;;;0.80;;
75698;SDS011;64313;51.018;13.742;2023-09-19T06:35:02;4.15;;;1.10;;
75698;SDS011;64313;51.018;13.742;2023-09-19T06:37:33;3.42;;;1.10;;
75698;SDS011;64313;51.018;13.742;2023-09-19T06:39:59;3.83;;;1.08;;
75698;SDS011;64313;51.018;13.742;2023-09-19T06:42:27;4.07;;;1.08;;
75698;SDS011;64313;51.018;13.742;2023-09-19T06:44:53;3.08;;;1.10;;
75698;SDS011;64313;51.018;13.742;2023-09-19T06:47:18;2.70;;;1.00;;
75698;SDS011;64313;51.018;13.742;2023-09-19T06:49:44;4.10;;;1.20;;
75698;SDS011;64313;51.018;13.742;2023-09-19T06:52:09;3.50;;;1.00;;
75698;SDS011;64313;51.018;13.742;2023-09-19T06:54:35;3.67;;;1.20;;
75698;SDS011;64313;51.018;13.742;2023-09-19T06:57:02;4.25;;;0.98;;
75698;SDS011;64313;51.018;13.742;2023-09-19T06:59:28;3.38;;;1.02;;
75698;SDS011;64313;51.018;13.742;2023-09-19T07:01:53;3.08;;;0.95;;
75698;SDS011;64313;51.018;13.742;2023-09-19T07:04:19;2.88;;;1.00;;
75698;SDS011;64313;51.018;13.742;2023-09-19T07:06:49;2.50;;;0.80;;
75698;SDS011;64313;51.018;13.742;2023-09-19T07:09:15;2.80;;;0.90;;
75698;SDS011;64313;51.018;13.742;2023-09-19T07:11:41;7.10;;;1.10;;
75698;SDS011;64313;51.018;13.742;2023-09-19T07:14:06;2.80;;;0.90;;
75698;SDS011;64313;51.018;13.742;2023-09-19T07:16:35;3.17;;;0.90;;
75698;SDS011;64313;51.018;13.742;2023-09-19T07:19:00;3.15;;;1.00;;
75698;SDS011;64313;51.018;13.742;2023-09-19T07:21:27;3.83;;;1.10;;
75698;SDS011;64313;51.018;13.742;2023-09-19T07:24:00;2.97;;;1.00;;
75698;SDS011;64313;51.018;13.742;2023-09-19T07:29:43;3.50;;;0.93;;
75698;SDS011;64313;51.018;13.742;2023-09-19T07:32:08;2.78;;;0.73;;
75698;SDS011;64313;51.018;13.742;2023-09-19T07:34:35;4.63;;;1.00;;
75698;SDS011;64313;51.018;13.742;2023-09-19T07:37:00;3.45;;;0.95;;
75698;SDS011;64313;51.018;13.742;2023-09-19T07:39:26;2.85;;;0.90;;
75698;SDS011;64313;51.018;13.742;2023-09-19T07:41:51;4.53;;;1.05;;
75698;SDS011;64313;51.018;13.742;2023-09-19T07:44:17;5.47;;;1.00;;
75698;SDS011;64313;51.018;13.742;2023-09-19T07:46:42;2.42;;;0.80;;
75698;SDS011;64313;51.018;13.742;2023-09-19T07:49:09;4.70;;;1.00;;
75698;SDS011;64313;51.018;13.742;2023-09-19T07:51:35;2.15;;;0.88;;
75698;SDS011;64313;51.018;13.742;2023-09-19T07:54:00;2.65;;;0.88;;
75698;SDS011;64313;51.018;13.742;2023-09-19T07:56:26;3.38;;;0.90;;
75698;SDS011;64313;51.018;13.742;2023-09-19T07:58:52;5.10;;;1.15;;
75698;SDS011;64313;51.018;13.742;2023-09-19T08:01:18;4.22;;;0.80;;
75698;SDS011;64313;51.018;13.742;2023-09-19T08:03:43;1.90;;;0.73;;
75698;SDS011;64313;51.018;13.742;2023-09-19T08:06:10;2.55;;;0.80;;
75698;SDS011;64313;51.018;13.742;2023-09-19T08:08:36;6.85;;;0.95;;
75698;SDS011;64313;51.018;13.742;2023-09-19T08:11:05;2.97;;;0.93;;
75698;SDS011;64313;51.018;13.742;2023-09-19T08:13:36;2.75;;;0.82;;
75698;SDS011;64313;51.018;13.742;2023-09-19T08:16:03;4.13;;;0.90;;
75698;SDS011;64313;51.018;13.742;2023-09-19T08:18:29;4.75;;;0.80;;
75698;SDS011;64313;51.018;13.742;2023-09-19T08:20:55;2.75;;;0.80;;
75698;SDS011;64313;51.018;13.742;2023-09-19T08:23:23;3.58;;;0.90;;
75698;SDS011;64313;51.018;13.742;2023-09-19T08:25:49;4.53;;;0.93;;
75698;SDS011;64313;51.018;13.742;2023-09-19T08:28:15;4.07;;;0.88;;
75698;SDS011;64313;51.018;13.742;2023-09-19T08:30:45;3.08;;;0.90;;
75698;SDS011;64313;51.018;13.742;2023-09-19T08:33:11;2.72;;;0.80;;
75698;SDS011;64313;51.018;13.742;2023-09-19T08:35:36;3.10;;;0.90;;
75698;SDS011;64313;51.018;13.742;2023-09-19T08:38:04;2.75;;;0.85;;
75698;SDS011;64313;51.018;13.742;2023-09-19T08:40:31;3.42;;;0.90;;
75698;SDS011;64313;51.018;13.742;2023-09-19T08:42:58;2.80;;;0.90;;
75698;SDS011;64313;51.018;13.742;2023-09-19T08:45:25;2.55;;;0.90;;
75698;SDS011;64313;51.018;13.742;2023-09-19T08:50:49;2.80;;;0.82;;
75698;SDS011;64313;51.018;13.742;2023-09-19T08:53:26;3.70;;;1.10;;
75698;SDS011;64313;51.018;13.742;2023-09-19T08:56:00;4.32;;;1.15;;
75698;SDS011;64313;51.018;13.742;2023-09-19T08:58:31;3.28;;;0.80;;
75698;SDS011;64313;51.018;13.742;2023-09-19T09:01:00;4.05;;;0.90;;
75698;SDS011;64313;51.018;13.742;2023-09-19T09:03:26;4.03;;;0.98;;
75698;SDS011;64313;51.018;13.742;2023-09-19T09:05:57;4.43;;;1.20;;
75698;SDS011;64313;51.018;13.742;2023-09-19T09:08:23;5.00;;;0.85;;
75698;SDS011;64313;51.018;13.742;2023-09-19T09:10:49;4.10;;;0.85;;
75698;SDS011;64313;51.018;13.742;2023-09-19T09:13:16;3.80;;;0.80;;
75698;SDS011;64313;51.018;13.742;2023-09-19T09:15:42;3.63;;;0.90;;
75698;SDS011;64313;51.018;13.742;2023-09-19T09:18:10;3.67;;;0.93;;
75698;SDS011;64313;51.018;13.742;2023-09-19T09:20:35;2.53;;;0.70;;
75698;SDS011;64313;51.018;13.742;2023-09-19T09:23:01;3.80;;;0.80;;
75698;SDS011;64313;51.018;13.742;2023-09-19T09:25:47;2.38;;;0.80;;
75698;SDS011;64313;51.018;13.742;2023-09-19T09:28:23;2.88;;;0.88;;
75698;SDS011;64313;51.018;13.742;2023-09-19T09:30:50;3.45;;;1.00;;
75698;SDS011;64313;51.018;13.742;2023-09-19T09:33:16;4.00;;;0.90;;
75698;SDS011;64313;51.018;13.742;2023-09-19T09:35:49;2.53;;;0.80;;
75698;SDS011;64313;51.018;13.742;2023-09-19T09:38:21;2.65;;;0.80;;
75698;SDS011;64313;51.018;13.742;2023-09-19T09:40:52;2.97;;;1.00;;
75698;SDS011;64313;51.018;13.742;2023-09-19T09:43:26;2.85;;;0.82;;
75698;SDS011;64313;51.018;13.742;2023-09-19T09:48:44;2.47;;;1.00;;
75698;SDS011;64313;51.018;13.742;2023-09-19T09:51:28;3.70;;;1.13;;
75698;SDS011;64313;51.018;13.742;2023-09-19T09:54:09;2.70;;;0.80;;
75698;SDS011;64313;51.018;13.742;2023-09-19T09:56:51;5.43;;;1.05;;
75698;SDS011;64313;51.018;13.742;2023-09-19T09:59:43;2.35;;;0.90;;
75698;SDS011;64313;51.018;13.742;2023-09-19T10:02:14;3.88;;;0.93;;
75698;SDS011;64313;51.018;13.742;2023-09-19T10:04:53;4.55;;;1.10;;
75698;SDS011;64313;51.018;13.742;2023-09-19T10:07:28;3.50;;;0.90;;
75698;SDS011;64313;51.018;13.742;2023-09-19T10:09:57;3.17;;;0.75;;
75698;SDS011;64313;51.018;13.742;2023-09-19T10:12:31;3.58;;;0.70;;
75698;SDS011;64313;51.018;13.742;2023-09-19T10:14:59;3.15;;;0.90;;
75698;SDS011;64313;51.018;13.742;2023-09-19T10:17:25;3.45;;;0.90;;
75698;SDS011;64313;51.018;13.742;2023-09-19T10:19:56;4.57;;;1.00;;
75698;SDS011;64313;51.018;13.742;2023-09-19T10:22:23;2.80;;;0.80;;
75698;SDS011;64313;51.018;13.742;2023-09-19T10:24:50;2.45;;;0.70;;
75698;SDS011;64313;51.018;13.742;2023-09-19T10:27:19;3.22;;;0.90;;
75698;SDS011;64313;51.018;13.742;2023-09-19T10:29:48;2.80;;;0.82;;
75698;SDS011;64313;51.018;13.742;2023-09-19T10:32:19;4.25;;;0.82;;
75698;SDS011;64313;51.018;13.742;2023-09-19T10:34:47;2.53;;;0.95;;
75698;SDS011;64313;51.018;13.742;2023-09-19T10:37:13;2.40;;;0.80;;
75698;SDS011;64313;51.018;13.742;2023-09-19T10:39:48;2.50;;;0.85;;
75698;SDS011;64313;51.018;13.742;2023-09-19T10:42:16;2.40;;;0.80;;
75698;SDS011;64313;51.018;13.742;2023-09-19T10:44:45;3.85;;;0.93;;
75698;SDS011;64313;51.018;13.742;2023-09-19T10:47:12;2.60;;;0.85;;
75698;SDS011;64313;51.018;13.742;2023-09-19T10:49:45;2.95;;;0.80;;
75698;SDS011;64313;51.018;13.742;2023-09-19T10:52:12;4.95;;;0.95;;
75698;SDS011;64313;51.018;13.742;2023-09-19T10:54:48;3.75;;;0.80;;
75698;SDS011;64313;51.018;13.742;2023-09-19T10:57:25;2.47;;;0.73;;
75698;SDS011;64313;51.018;13.742;2023-09-19T11:00:08;4.13;;;1.10;;
75698;SDS011;64313;51.018;13.742;2023-09-19T11:05:40;3.17;;;0.82;;
75698;SDS011;64313;51.018;13.742;2023-09-19T11:08:09;4.35;;;0.80;;
75698;SDS011;64313;51.018;13.742;2023-09-19T11:10:47;3.90;;;0.95;;
75698;SDS011;64313;51.018;13.742;2023-09-19T11:13:26;4.20;;;0.90;;
75698;SDS011;64313;51.018;13.742;2023-09-19T11:26:41;5.35;;;1.23;;
75698;SDS011;64313;51.018;13.742;2023-09-19T11:29:24;3.22;;;1.00;;
75698;SDS011;64313;51.018;13.742;2023-09-19T11:31:54;3.92;;;1.00;;
75698;SDS011;64313;51.018;13.742;2023-09-19T11:37:02;2.97;;;1.05;;
75698;SDS011;64313;51.018;13.742;2023-09-19T11:40:06;3.38;;;1.02;;
75698;SDS011;64313;51.018;13.742;2023-09-19T11:48:20;3.10;;;0.95;;
75698;SDS011;64313;51.018;13.742;2023-09-19T11:50:50;3.85;;;1.10;;
75698;SDS011;64313;51.018;13.742;2023-09-19T11:53:17;4.13;;;1.20;;
75698;SDS011;64313;51.018;13.742;2023-09-19T11:55:45;4.60;;;1.30;;
75698;SDS011;64313;51.018;13.742;2023-09-19T11:58:10;2.83;;;1.00;;
75698;SDS011;64313;51.018;13.742;2023-09-19T12:00:39;3.22;;;1.08;;
75698;SDS011;64313;51.018;13.742;2023-09-19T12:03:09;3.33;;;1.15;;
75698;SDS011;64313;51.018;13.742;2023-09-19T12:05:36;3.90;;;1.25;;
75698;SDS011;64313;51.018;13.742;2023-09-19T12:08:02;6.18;;;1.10;;
75698;SDS011;64313;51.018;13.742;2023-09-19T12:10:30;4.25;;;1.20;;
75698;SDS011;64313;51.018;13.742;2023-09-19T12:12:55;5.63;;;1.17;;
75698;SDS011;64313;51.018;13.742;2023-09-19T12:15:27;3.13;;;1.10;;
75698;SDS011;64313;51.018;13.742;2023-09-19T12:17:59;3.10;;;1.13;;
75698;SDS011;64313;51.018;13.742;2023-09-19T12:20:25;3.05;;;1.10;;
75698;SDS011;64313;51.018;13.742;2023-09-19T12:23:12;3.53;;;1.00;;
75698;SDS011;64313;51.018;13.742;2023-09-19T12:25:42;3.80;;;0.80;;
75698;SDS011;64313;51.018;13.742;2023-09-19T12:28:12;3.78;;;1.25;;
75698;SDS011;64313;51.018;13.742;2023-09-19T12:30:38;5.32;;;1.00;;
75698;SDS011;64313;51.018;13.742;2023-09-19T12:33:14;2.95;;;0.90;;
75698;SDS011;64313;51.018;13.742;2023-09-19T12:35:51;4.15;;;1.08;;
75698;SDS011;64313;51.018;13.742;2023-09-19T12:38:27;3.65;;;1.05;;
75698;SDS011;64313;51.018;13.742;2023-09-19T12:41:01;3.78;;;0.90;;
75698;SDS011;64313;51.018;13.742;2023-09-19T12:43:28;6.38;;;1.02;;
75698;SDS011;64313;51.018;13.742;2023-09-19T12:45:57;2.90;;;1.00;;
75698;SDS011;64313;51.018;13.742;2023-09-19T12:48:25;4.70;;;1.10;;
75698;SDS011;64313;51.018;13.742;2023-09-19T12:53:25;2.75;;;0.95;;
75698;SDS011;64313;51.018;13.742;2023-09-19T12:55:57;3.88;;;1.55;;
75698;SDS011;64313;51.018;13.742;2023-09-19T12:58:23;4.70;;;1.30;;
75698;SDS011;64313;51.018;13.742;2023-09-19T13:00:50;4.60;;;1.00;;
75698;SDS011;64313;51.018;13.742;2023-09-19T13:03:29;3.55;;;1.10;;
75698;SDS011;64313;51.018;13.742;2023-09-19T13:06:03;6.15;;;1.20;;
75698;SDS011;64313;51.018;13.742;2023-09-19T13:08:38;4.95;;;1.00;;
75698;SDS011;64313;51.018;13.742;2023-09-19T13:13:46;4.70;;;1.00;;
75698;SDS011;64313;51.018;13.742;2023-09-19T13:16:14;2.83;;;1.00;;
75698;SDS011;64313;51.018;13.742;2023-09-19T13:18:50;3.95;;;0.90;;
75698;SDS011;64313;51.018;13.742;2023-09-19T13:21:26;3.85;;;1.15;;
75698;SDS011;64313;51.018;13.742;2023-09-19T13:24:17;7.75;;;1.30;;
75698;SDS011;64313;51.018;13.742;2023-09-19T13:26:44;2.47;;;0.82;;
75698;SDS011;64313;51.018;13.742;2023-09-19T13:29:10;3.30;;;1.10;;
75698;SDS011;64313;51.018;13.742;2023-09-19T13:31:36;5.00;;;1.40;;
75698;SDS011;64313;51.018;13.742;2023-09-19T13:34:06;3.13;;;1.00;;
75698;SDS011;64313;51.018;13.742;2023-09-19T13:36:32;2.88;;;1.00;;
75698;SDS011;64313;51.018;13.742;2023-09-19T13:38:58;3.30;;;1.02;;
75698;SDS011;64313;51.018;13.742;2023-09-19T13:41:25;3.60;;;1.15;;
75698;SDS011;64313;51.018;13.742;2023-09-19T13:43:51;3.70;;;1.20;;
75698;SDS011;64313;51.018;13.742;2023-09-19T13:46:18;4.30;;;1.10;;
75698;SDS011;64313;51.018;13.742;2023-09-19T13:48:50;5.82;;;1.10;;
75698;SDS011;64313;51.018;13.742;2023-09-19T13:51:17;3.65;;;1.17;;
75698;SDS011;64313;51.018;13.742;2023-09-19T13:53:44;3.90;;;1.20;;
75698;SDS011;64313;51.018;13.742;2023-09-19T13:56:10;2.97;;;1.10;;
75698;SDS011;64313;51.018;13.742;2023-09-19T13:58:36;7.50;;;1.10;;
75698;SDS011;64313;51.018;13.742;2023-09-19T14:01:01;2.80;;;1.02;;
75698;SDS011;64313;51.018;13.742;2023-09-19T14:03:26;3.33;;;1.02;;
75698;SDS011;64313;51.018;13.742;2023-09-19T14:05:53;4.05;;;1.08;;
75698;SDS011;64313;51.018;13.742;2023-09-19T14:08:19;4.82;;;1.05;;
75698;SDS011;64313;51.018;13.742;2023-09-19T14:10:45;3.90;;;1.23;;
75698;SDS011;64313;51.018;13.742;2023-09-19T14:13:11;5.15;;;1.48;;
75698;SDS011;64313;51.018;13.742;2023-09-19T14:15:38;4.55;;;1.25;;
75698;SDS011;64313;51.018;13.742;2023-09-19T14:18:04;3.97;;;1.40;;
75698;SDS011;64313;51.018;13.742;2023-09-19T14:20:29;4.40;;;1.30;;
75698;SDS011;64313;51.018;13.742;2023-09-19T14:22:56;5.13;;;1.38;;
75698;SDS011;64313;51.018;13.742;2023-09-19T14:25:24;4.35;;;1.27;;
75698;SDS011;64313;51.018;13.742;2023-09-19T14:27:50;4.55;;;1.65;;
75698;SDS011;64313;51.018;13.742;2023-09-19T14:30:15;3.72;;;1.00;;
75698;SDS011;64313;51.018;13.742;2023-09-19T14:32:41;4.30;;;1.30;;
75698;SDS011;64313;51.018;13.742;2023-09-19T14:35:07;4.45;;;1.10;;
75698;SDS011;64313;51.018;13.742;2023-09-19T14:37:34;3.90;;;1.20;;
75698;SDS011;64313;51.018;13.742;2023-09-19T14:39:59;3.30;;;1.15;;
75698;SDS011;64313;51.018;13.742;2023-09-19T14:42:25;3.72;;;1.30;;
75698;SDS011;64313;51.018;13.742;2023-09-19T14:44:51;4.00;;;1.35;;
75698;SDS011;64313;51.018;13.742;2023-09-19T14:47:16;4.35;;;1.40;;
75698;SDS011;64313;51.018;13.742;2023-09-19T14:49:42;3.55;;;1.30;;
75698;SDS011;64313;51.018;13.742;2023-09-19T14:52:07;3.95;;;1.55;;
75698;SDS011;64313;51.018;13.742;2023-09-19T14:54:34;3.63;;;1.38;;
75698;SDS011;64313;51.018;13.742;2023-09-19T14:57:00;6.07;;;1.40;;
75698;SDS011;64313;51.018;13.742;2023-09-19T14:59:33;4.43;;;1.75;;
75698;SDS011;64313;51.018;13.742;2023-09-19T15:02:05;6.68;;;1.50;;
75698;SDS011;64313;51.018;13.742;2023-09-19T15:04:31;4.70;;;1.30;;
75698;SDS011;64313;51.018;13.742;2023-09-19T15:06:57;3.72;;;1.40;;
75698;SDS011;64313;51.018;13.742;2023-09-19T15:09:23;4.38;;;1.50;;
75698;SDS011;64313;51.018;13.742;2023-09-19T15:11:51;4.85;;;1.58;;
75698;SDS011;64313;51.018;13.742;2023-09-19T15:14:17;3.70;;;1.40;;
75698;SDS011;64313;51.018;13.742;2023-09-19T15:16:43;5.43;;;1.23;;
75698;SDS011;64313;51.018;13.742;2023-09-19T15:19:09;3.85;;;1.50;;
75698;SDS011;64313;51.018;13.742;2023-09-19T15:21:35;5.10;;;1.20;;
75698;SDS011;64313;51.018;13.742;2023-09-19T15:24:00;5.75;;;1.50;;
75698;SDS011;64313;51.018;13.742;2023-09-19T15:26:26;3.15;;;1.13;;
75698;SDS011;64313;51.018;13.742;2023-09-19T15:28:52;6.90;;;1.55;;
75698;SDS011;64313;51.018;13.742;2023-09-19T15:31:19;4.85;;;1.40;;
75698;SDS011;64313;51.018;13.742;2023-09-19T15:33:44;4.57;;;1.45;;
75698;SDS011;64313;51.018;13.742;2023-09-19T15:36:11;6.28;;;1.40;;
75698;SDS011;64313;51.018;13.742;2023-09-19T15:41:16;5.00;;;1.50;;